Terminal Aerodrome Forecast
Issued by NWS

Home | Current Version | Previous Version | Text Only | Print | Product List | Glossary On
Versions: 1 2 3 4 5 6 7 8 9 10 11 12 13 14 15 16 17 18
000
FTAK31 PANC 240536
TAFAEN
TAF
PAEN 240536Z 2406/2506 VRB03KT P6SM BKN200
     FM241500 VRB03KT P6SM BKN060
     FM242100 03005KT P6SM -SN OVC045
     FM250400 36004KT P6SM SCT045 BKN080=

USA.gov is the U.S. government's official web portal to all federal, state and local government web resources and services.